createdAt,value
2022-08-23T00:00:34.739Z,714.25
2022-08-23T00:01:34.698Z,714.14
2022-08-23T00:02:34.716Z,713.85
2022-08-23T00:03:34.675Z,713.92
2022-08-23T00:04:35.300Z,714.04
2022-08-23T00:05:34.671Z,714.32
2022-08-23T00:06:34.642Z,714.37
2022-08-23T00:07:38.186Z,714.67
2022-08-23T00:08:34.640Z,714.56
2022-08-23T00:09:34.603Z,714.61
2022-08-23T00:10:34.631Z,714.68
2022-08-23T00:11:34.588Z,714.71
2022-08-23T00:12:34.582Z,714.76
2022-08-23T00:13:47.342Z,715.10
2022-08-23T00:14:34.553Z,714.96
2022-08-23T00:15:34.574Z,715.19
2022-08-23T00:16:34.549Z,714.97
2022-08-23T00:17:35.203Z,715.07
2022-08-23T00:18:34.517Z,715.15
2022-08-23T00:19:34.498Z,714.98
2022-08-23T00:20:34.512Z,715.00
2022-08-23T00:21:34.473Z,715.12
2022-08-23T00:22:34.474Z,715.40
2022-08-23T00:23:34.454Z,715.55
2022-08-23T00:24:37.987Z,715.54
2022-08-23T00:25:34.444Z,715.49
2022-08-23T00:26:34.422Z,715.58
2022-08-23T00:27:34.407Z,715.46
2022-08-23T00:28:34.430Z,715.62
2022-08-23T00:29:34.383Z,715.63
2022-08-23T00:30:34.372Z,715.88
2022-08-23T00:31:34.379Z,715.86
2022-08-23T00:32:34.349Z,715.86
2022-08-23T00:33:34.355Z,715.76
2022-08-23T00:34:34.333Z,716.30
2022-08-23T00:35:34.347Z,716.26
2022-08-23T00:36:34.309Z,716.44
2022-08-23T00:37:34.300Z,716.48
2022-08-23T00:38:35.240Z,716.13
2022-08-23T00:39:34.305Z,716.34
2022-08-23T00:40:34.289Z,716.57
2022-08-23T00:41:34.256Z,716.24
2022-08-23T00:42:34.251Z,716.32
2022-08-23T00:43:34.226Z,716.38
2022-08-23T00:44:34.232Z,716.26
2022-08-23T00:45:34.235Z,716.40
2022-08-23T00:47:45.019Z,716.79
2022-08-23T00:48:44.152Z,716.59
2022-08-23T00:49:44.142Z,716.74
2022-08-23T00:50:44.158Z,716.55
2022-08-23T00:51:52.761Z,716.51
2022-08-23T00:52:44.095Z,716.29
2022-08-23T00:53:44.087Z,716.37
2022-08-23T00:54:44.073Z,716.41
2022-08-23T00:55:44.087Z,716.65
2022-08-23T00:56:44.066Z,716.71
2022-08-23T00:57:44.073Z,716.62
2022-08-23T00:58:44.036Z,716.79
2022-08-23T00:59:44.032Z,716.65
2022-08-23T01:00:44.032Z,716.87
2022-08-23T01:01:44.083Z,716.64
2022-08-23T01:02:43.990Z,716.44
2022-08-23T01:03:43.978Z,716.48
2022-08-23T01:04:43.963Z,716.64
2022-08-23T01:05:43.952Z,716.59
2022-08-23T01:06:43.977Z,716.44
2022-08-23T01:07:43.939Z,716.52
2022-08-23T01:08:43.927Z,716.52
2022-08-23T01:09:43.911Z,716.58
2022-08-23T01:10:43.936Z,716.74
2022-08-23T01:11:43.909Z,716.98
2022-08-23T01:12:43.883Z,717.07
2022-08-23T01:13:43.869Z,717.02
2022-08-23T01:14:43.863Z,717.05
2022-08-23T01:15:43.847Z,717.01
2022-08-23T01:16:43.848Z,716.91
2022-08-23T01:17:43.843Z,716.83
2022-08-23T01:18:43.810Z,716.73
2022-08-23T01:19:43.802Z,717.01
2022-08-23T01:20:43.791Z,716.81
2022-08-23T01:21:43.779Z,716.98
2022-08-23T01:22:43.780Z,716.76
2022-08-23T01:23:43.754Z,716.86
2022-08-23T01:25:07.398Z,716.56
2022-08-23T01:25:43.741Z,716.69
2022-08-23T01:26:43.729Z,716.73
2022-08-23T01:27:43.895Z,716.75
2022-08-23T01:28:43.710Z,716.80
2022-08-23T01:29:43.692Z,716.67
2022-08-23T01:30:43.682Z,716.48
2022-08-23T01:31:43.699Z,716.53
2022-08-23T01:32:43.673Z,716.59
2022-08-23T01:33:43.653Z,716.82
2022-08-23T01:34:44.653Z,716.74
2022-08-23T01:35:43.626Z,716.59
2022-08-23T01:36:43.648Z,716.63
2022-08-23T01:37:43.620Z,716.51
2022-08-23T01:38:43.599Z,716.62
2022-08-23T01:39:43.620Z,716.68
2022-08-23T01:40:43.577Z,716.56
2022-08-23T01:41:43.594Z,716.48
2022-08-23T01:42:43.580Z,716.51
2022-08-23T01:43:43.535Z,716.80
2022-08-23T01:44:43.537Z,716.84
2022-08-23T01:45:43.549Z,716.75
2022-08-23T01:46:43.523Z,717.03
2022-08-23T01:47:43.496Z,717.18
2022-08-23T01:48:43.499Z,717.26
2022-08-23T01:49:43.484Z,717.50
2022-08-23T01:50:43.461Z,717.42
2022-08-23T01:51:43.505Z,717.58
2022-08-23T01:52:46.744Z,717.47
2022-08-23T01:53:43.460Z,717.71
2022-08-23T01:54:43.440Z,717.51
2022-08-23T01:55:43.411Z,717.50
2022-08-23T01:56:43.420Z,717.20
2022-08-23T01:57:43.393Z,717.37
2022-08-23T01:58:43.379Z,717.26
2022-08-23T01:59:43.361Z,717.35
2022-08-23T02:00:43.362Z,717.32
2022-08-23T02:01:44.246Z,717.36
2022-08-23T02:02:43.362Z,717.65
2022-08-23T02:03:43.318Z,717.49
2022-08-23T02:04:43.337Z,717.78
2022-08-23T02:05:43.373Z,717.92
2022-08-23T02:06:43.287Z,718.12
2022-08-23T02:07:43.303Z,718.14
2022-08-23T02:08:43.273Z,718.28
2022-08-23T02:09:43.264Z,718.61
2022-08-23T02:10:43.244Z,718.91
2022-08-23T02:11:43.237Z,719.01
2022-08-23T02:12:43.232Z,719.01
2022-08-23T02:13:43.261Z,719.16
2022-08-23T02:14:43.202Z,719.41
2022-08-23T02:15:43.204Z,719.42
2022-08-23T02:16:43.180Z,719.55
2022-08-23T02:17:43.177Z,719.47
2022-08-23T02:18:43.183Z,719.77
2022-08-23T02:19:43.151Z,719.65
2022-08-23T02:20:43.139Z,719.87
2022-08-23T02:21:43.124Z,719.84
2022-08-23T02:22:43.119Z,719.82
2022-08-23T02:23:43.126Z,719.93
2022-08-23T02:24:43.091Z,719.48
2022-08-23T02:25:43.076Z,719.65
2022-08-23T02:26:46.324Z,719.88
2022-08-23T02:27:44.096Z,719.93
2022-08-23T02:28:43.235Z,720.01
2022-08-23T02:29:44.020Z,720.34
2022-08-23T02:30:43.021Z,720.39
2022-08-23T02:31:43.016Z,720.62
2022-08-23T02:32:43.005Z,720.64
2022-08-23T02:33:42.991Z,720.62
2022-08-23T02:34:42.992Z,720.84
2022-08-23T02:35:42.966Z,721.03
2022-08-23T02:36:42.956Z,721.21
2022-08-23T02:37:42.948Z,721.09
2022-08-23T02:38:42.949Z,721.02
2022-08-23T02:39:43.057Z,721.26
2022-08-23T02:40:42.911Z,721.48
2022-08-23T02:41:42.914Z,721.42
2022-08-23T02:42:42.888Z,721.68
2022-08-23T02:43:42.897Z,722.27
2022-08-23T02:44:42.892Z,722.28
2022-08-23T02:45:42.874Z,722.34
2022-08-23T02:46:42.844Z,722.32
2022-08-23T02:48:51.888Z,723.27
2022-08-23T02:49:52.902Z,723.11
2022-08-23T02:50:52.857Z,723.06
2022-08-23T02:51:52.849Z,723.47
2022-08-23T02:52:52.834Z,723.30
2022-08-23T02:53:52.825Z,723.25
2022-08-23T02:54:53.228Z,723.49
2022-08-23T02:55:52.819Z,723.92
2022-08-23T02:56:52.793Z,723.90
2022-08-23T02:57:52.785Z,723.69
2022-08-23T02:58:54.306Z,723.97
2022-08-23T02:59:52.785Z,724.03
2022-08-23T03:00:52.753Z,723.89
2022-08-23T03:01:52.822Z,724.31
2022-08-23T03:02:52.740Z,724.75
2022-08-23T03:03:52.722Z,724.74
2022-08-23T03:04:52.739Z,725.07
2022-08-23T03:05:52.706Z,724.58
2022-08-23T03:06:52.691Z,724.86
2022-08-23T03:07:52.685Z,724.95
2022-08-23T03:08:52.682Z,725.17
2022-08-23T03:09:52.683Z,725.63
2022-08-23T03:10:52.645Z,725.64
2022-08-23T03:11:52.630Z,725.77
2022-08-23T03:12:52.619Z,726.15
2022-08-23T03:13:52.609Z,726.24
2022-08-23T03:14:52.779Z,726.00
2022-08-23T03:15:52.598Z,726.16
2022-08-23T03:16:52.583Z,726.07
2022-08-23T03:17:52.572Z,726.41
2022-08-23T03:18:52.561Z,726.44
2022-08-23T03:19:52.580Z,726.88
2022-08-23T03:20:52.556Z,727.18
2022-08-23T03:21:52.533Z,727.50
2022-08-23T03:22:54.662Z,727.60
2022-08-23T03:23:52.508Z,727.14
2022-08-23T03:24:52.510Z,727.43
2022-08-23T03:25:52.517Z,727.81
2022-08-23T03:26:52.519Z,727.64
2022-08-23T03:27:52.470Z,728.29
2022-08-23T03:28:52.458Z,728.64
2022-08-23T03:29:52.443Z,728.77
2022-08-23T03:30:52.449Z,728.78
2022-08-23T03:31:53.823Z,728.63
2022-08-23T03:32:52.404Z,728.98
2022-08-23T03:33:52.393Z,728.93
2022-08-23T03:34:52.415Z,729.24
2022-08-23T03:35:52.374Z,729.06
2022-08-23T03:36:52.366Z,729.45
2022-08-23T03:37:55.130Z,729.54
2022-08-23T03:38:52.339Z,729.52
2022-08-23T03:39:52.411Z,729.57
2022-08-23T03:40:52.321Z,729.56
2022-08-23T03:41:52.314Z,729.73
2022-08-23T03:42:52.303Z,729.96
2022-08-23T03:43:52.287Z,730.26
2022-08-23T03:44:56.928Z,730.19
2022-08-23T03:45:52.285Z,730.44
2022-08-23T03:46:52.265Z,731.06
2022-08-23T03:47:52.240Z,731.36
2022-08-23T03:48:52.785Z,731.93
2022-08-23T03:49:52.233Z,732.09
2022-08-23T03:50:54.560Z,732.72
2022-08-23T03:51:52.206Z,733.30
2022-08-23T03:52:52.188Z,733.41
2022-08-23T03:53:52.173Z,733.50
2022-08-23T03:54:52.194Z,733.73
2022-08-23T03:55:52.165Z,734.30
2022-08-23T03:56:52.157Z,734.70
2022-08-23T03:57:52.165Z,734.28
2022-08-23T03:58:52.121Z,734.27
2022-08-23T03:59:52.114Z,734.59
2022-08-23T04:00:52.096Z,734.71
2022-08-23T04:01:52.128Z,734.87
2022-08-23T04:02:52.112Z,734.99
2022-08-23T04:03:52.073Z,734.99
2022-08-23T04:04:52.057Z,735.09
2022-08-23T04:05:52.049Z,735.42
2022-08-23T04:06:52.041Z,735.80
2022-08-23T04:07:52.023Z,735.59
2022-08-23T04:08:52.017Z,735.62
2022-08-23T04:09:54.977Z,735.92
2022-08-23T04:10:52.004Z,735.84
2022-08-23T04:11:51.983Z,736.02
2022-08-23T04:12:51.967Z,735.94
2022-08-23T04:13:51.982Z,736.23
2022-08-23T04:14:51.943Z,736.73
2022-08-23T04:15:51.937Z,737.10
2022-08-23T04:16:51.937Z,737.01
2022-08-23T04:17:51.924Z,737.34
2022-08-23T04:18:51.927Z,737.64
2022-08-23T04:19:51.948Z,737.56
2022-08-23T04:20:51.877Z,737.74
2022-08-23T04:21:51.868Z,738.02
2022-08-23T04:22:51.857Z,738.39
2022-08-23T04:23:51.843Z,738.00
2022-08-23T04:24:51.866Z,738.25
2022-08-23T04:25:51.836Z,738.20
2022-08-23T04:26:51.822Z,738.56
2022-08-23T04:27:51.816Z,738.83
2022-08-23T04:28:51.803Z,738.99
2022-08-23T04:29:51.805Z,738.93
2022-08-23T04:30:51.773Z,738.67
2022-08-23T04:31:51.784Z,738.76
2022-08-23T04:32:51.751Z,739.11
2022-08-23T04:33:52.635Z,738.89
2022-08-23T04:34:51.731Z,738.69
2022-08-23T04:35:51.716Z,738.65
2022-08-23T04:36:55.115Z,738.62
2022-08-23T04:37:51.700Z,738.73
2022-08-23T04:38:51.687Z,739.27
2022-08-23T04:39:51.844Z,739.54
2022-08-23T04:40:51.659Z,739.72
2022-08-23T04:41:51.652Z,739.37
2022-08-23T04:42:51.642Z,739.33
2022-08-23T04:43:51.632Z,739.58
2022-08-23T04:44:51.645Z,739.11
2022-08-23T04:45:51.613Z,739.24
2022-08-23T04:46:51.610Z,739.21
2022-08-23T04:47:51.580Z,739.07
2022-08-23T04:50:00.579Z,739.23
2022-08-23T04:51:01.539Z,739.05
2022-08-23T04:53:00.536Z,739.87
2022-08-23T04:54:01.530Z,740.37
2022-08-23T04:55:01.482Z,740.20
2022-08-23T04:56:01.476Z,739.88
2022-08-23T04:57:01.462Z,739.74
2022-08-23T04:58:01.736Z,739.81
2022-08-23T04:59:01.441Z,739.43
2022-08-23T05:00:01.437Z,739.48
2022-08-23T05:01:01.466Z,738.96
2022-08-23T05:02:01.412Z,738.73
2022-08-23T05:03:01.427Z,738.77
2022-08-23T05:04:01.397Z,738.74
2022-08-23T05:05:01.374Z,738.89
2022-08-23T05:06:01.361Z,738.54
2022-08-23T05:07:01.351Z,738.34
2022-08-23T05:08:01.628Z,738.41
2022-08-23T05:09:01.337Z,738.37
2022-08-23T05:10:01.323Z,738.57
2022-08-23T05:11:01.323Z,738.54
2022-08-23T05:12:01.297Z,738.48
2022-08-23T05:13:01.304Z,738.57
2022-08-23T05:14:01.273Z,738.49
2022-08-23T05:15:01.266Z,738.13
2022-08-23T05:16:01.252Z,738.05
2022-08-23T05:17:01.249Z,737.91
2022-08-23T05:18:01.449Z,737.74
2022-08-23T05:19:01.221Z,737.44
2022-08-23T05:20:01.218Z,737.28
2022-08-23T05:21:01.192Z,736.98
2022-08-23T05:22:01.185Z,736.84
2022-08-23T05:23:01.211Z,736.64
2022-08-23T05:24:02.179Z,736.44
2022-08-23T05:25:01.146Z,736.30
2022-08-23T05:26:01.143Z,735.91
2022-08-23T05:27:01.126Z,735.69
2022-08-23T05:28:01.356Z,735.81
2022-08-23T05:29:01.123Z,735.73
2022-08-23T05:30:01.096Z,735.47
2022-08-23T05:31:01.086Z,734.98
2022-08-23T05:32:01.079Z,734.80
2022-08-23T05:33:01.072Z,734.56
2022-08-23T05:34:01.059Z,734.07
2022-08-23T05:35:01.056Z,733.77
2022-08-23T05:36:02.019Z,733.43
2022-08-23T05:37:01.045Z,733.26
2022-08-23T05:38:01.220Z,732.88
2022-08-23T05:39:00.993Z,732.43
2022-08-23T05:40:01.051Z,732.11
2022-08-23T05:41:00.969Z,731.62
2022-08-23T05:42:00.995Z,731.20
2022-08-23T05:43:00.957Z,730.88
2022-08-23T05:44:01.038Z,730.53
2022-08-23T05:45:00.942Z,730.15
2022-08-23T05:46:01.583Z,729.74
2022-08-23T05:47:00.930Z,729.40
2022-08-23T05:48:01.137Z,728.62
2022-08-23T05:49:00.886Z,728.01
2022-08-23T05:50:00.879Z,727.81
2022-08-23T05:51:00.856Z,727.59
2022-08-23T05:52:00.935Z,727.04
2022-08-23T05:53:00.842Z,726.43
2022-08-23T05:54:00.870Z,725.80
2022-08-23T05:55:00.831Z,725.31
2022-08-23T05:56:00.807Z,724.50
2022-08-23T05:57:01.348Z,723.84
2022-08-23T05:58:01.034Z,723.45
2022-08-23T05:59:00.782Z,723.11
2022-08-23T06:00:00.768Z,722.74
2022-08-23T06:01:00.778Z,722.64
2022-08-23T06:02:00.750Z,722.47
2022-08-23T06:03:00.781Z,721.60
2022-08-23T06:04:00.748Z,720.92
2022-08-23T06:05:00.702Z,720.45
2022-08-23T06:06:00.697Z,719.74
2022-08-23T06:07:00.804Z,719.44
2022-08-23T06:08:00.967Z,718.97
2022-08-23T06:09:00.708Z,718.75
2022-08-23T06:10:00.654Z,717.96
2022-08-23T06:11:00.686Z,717.42
2022-08-23T06:12:00.627Z,717.43
2022-08-23T06:13:00.735Z,716.89
2022-08-23T06:14:00.657Z,716.23
2022-08-23T06:15:00.842Z,715.91
2022-08-23T06:16:00.591Z,715.40
2022-08-23T06:17:00.584Z,714.90
2022-08-23T06:18:00.790Z,714.76
2022-08-23T06:19:00.554Z,714.68
2022-08-23T06:20:00.654Z,714.50
2022-08-23T06:21:00.532Z,714.37
2022-08-23T06:22:00.526Z,714.08
2022-08-23T06:23:00.559Z,714.57
2022-08-23T06:24:00.524Z,714.63
2022-08-23T06:25:00.513Z,714.57
2022-08-23T06:26:00.504Z,714.58
2022-08-23T06:27:00.467Z,714.70
2022-08-23T06:28:00.593Z,714.63
2022-08-23T06:29:00.511Z,714.45
2022-08-23T06:30:00.502Z,713.97
2022-08-23T06:31:00.478Z,714.16
2022-08-23T06:32:00.443Z,713.58
2022-08-23T06:33:00.408Z,713.24
2022-08-23T06:34:00.450Z,712.87
2022-08-23T06:35:18.118Z,712.49
2022-08-23T06:36:00.374Z,712.46
2022-08-23T06:37:00.360Z,712.32
2022-08-23T06:38:00.546Z,712.30
2022-08-23T06:39:00.349Z,712.37
2022-08-23T06:40:00.397Z,711.93
2022-08-23T06:41:00.434Z,711.43
2022-08-23T06:42:00.363Z,710.71
2022-08-23T06:43:00.380Z,710.51
2022-08-23T06:44:00.294Z,710.20
2022-08-23T06:45:02.113Z,709.80
2022-08-23T06:46:00.342Z,709.48
2022-08-23T06:47:11.525Z,710.19
2022-08-23T06:50:16.526Z,710.79
2022-08-23T06:51:12.547Z,710.16
2022-08-23T06:52:10.545Z,709.72
2022-08-23T06:55:13.731Z,709.62
2022-08-23T06:58:16.841Z,707.81
2022-08-23T06:59:17.007Z,706.53
2022-08-23T07:06:15.125Z,704.19
2022-08-23T07:06:27.624Z,702.87
2022-08-23T07:08:42.044Z,703.75
2022-08-23T07:08:49.494Z,703.33
2022-08-23T07:09:31.514Z,708.86
2022-08-23T07:09:31.516Z,703.42
2022-08-23T07:09:49.693Z,705.97
2022-08-23T07:10:09.305Z,703.82
2022-08-23T07:10:09.484Z,702.85
2022-08-23T07:11:09.481Z,703.14
2022-08-23T07:12:09.456Z,703.16
2022-08-23T07:13:09.445Z,702.39
2022-08-23T07:14:09.446Z,701.80
2022-08-23T07:15:09.397Z,701.03
2022-08-23T07:16:09.446Z,700.38
2022-08-23T07:17:09.374Z,700.48
2022-08-23T07:18:10.981Z,701.21
2022-08-23T07:19:09.437Z,701.68
2022-08-23T07:20:09.388Z,702.36
2022-08-23T07:21:09.342Z,703.17
2022-08-23T07:22:09.326Z,702.62
2022-08-23T07:23:09.346Z,702.87
2022-08-23T07:24:09.348Z,702.66
2022-08-23T07:25:09.310Z,702.53
2022-08-23T07:26:09.300Z,701.78
2022-08-23T07:27:09.296Z,701.67
2022-08-23T07:28:11.727Z,700.73
2022-08-23T07:29:09.283Z,700.41
2022-08-23T07:30:09.302Z,700.19
2022-08-23T07:31:14.402Z,700.10
2022-08-23T07:32:09.292Z,700.36
2022-08-23T07:33:09.228Z,700.95
2022-08-23T07:34:09.241Z,700.72
2022-08-23T07:35:09.192Z,700.49
2022-08-23T07:36:09.183Z,700.91
2022-08-23T07:37:11.582Z,700.76
2022-08-23T07:38:09.157Z,700.78
2022-08-23T07:39:09.168Z,700.44
2022-08-23T07:40:09.192Z,700.41
2022-08-23T07:41:09.123Z,700.78
2022-08-23T07:42:24.098Z,700.28
2022-08-23T07:43:09.176Z,699.24
2022-08-23T07:44:09.268Z,697.85
2022-08-23T07:45:10.021Z,697.20
2022-08-23T07:46:09.152Z,696.66
2022-08-23T07:47:09.059Z,696.48
2022-08-23T07:48:09.041Z,695.99
2022-08-23T07:49:09.045Z,695.34
2022-08-23T07:50:09.019Z,695.26
2022-08-23T07:51:09.045Z,696.02
2022-08-23T07:52:09.001Z,694.86
2022-08-23T07:53:08.997Z,694.05
2022-08-23T07:54:08.985Z,692.65
2022-08-23T07:55:08.972Z,692.18
2022-08-23T07:56:09.002Z,691.57
2022-08-23T07:57:08.948Z,691.76
2022-08-23T07:58:09.682Z,691.72
2022-08-23T07:59:08.952Z,691.16
2022-08-23T08:00:08.933Z,691.58
2022-08-23T08:01:08.929Z,690.65
2022-08-23T08:02:09.860Z,690.11
2022-08-23T08:03:08.948Z,689.70
2022-08-23T08:04:08.875Z,689.14
2022-08-23T08:05:08.931Z,688.90
2022-08-23T08:06:08.924Z,688.93
2022-08-23T08:07:19.414Z,689.38
2022-08-23T08:08:08.911Z,690.81
2022-08-23T08:09:08.959Z,691.75
2022-08-23T08:11:47.421Z,691.44
2022-08-23T08:12:17.656Z,691.71
2022-08-23T08:15:10.081Z,690.17
2022-08-23T08:24:32.984Z,689.25
2022-08-23T08:30:39.736Z,689.98
2022-08-23T08:36:42.466Z,686.13
2022-08-23T08:36:49.081Z,686.95
2022-08-23T08:39:03.011Z,686.63
2022-08-23T08:39:29.035Z,686.17
2022-08-23T08:40:28.585Z,685.75
2022-08-23T08:40:38.635Z,687.65
2022-08-23T08:40:40.657Z,688.63
2022-08-23T08:41:28.545Z,684.86
2022-08-23T08:42:28.529Z,684.10
2022-08-23T08:43:28.603Z,684.48
2022-08-23T08:44:28.540Z,683.99
2022-08-23T08:45:28.555Z,683.91
2022-08-23T08:46:28.639Z,683.47
2022-08-23T08:47:28.476Z,683.65
2022-08-23T08:48:28.469Z,684.36
2022-08-23T08:49:28.500Z,684.20
2022-08-23T08:50:28.451Z,684.36
2022-08-23T08:51:28.503Z,684.92
2022-08-23T08:52:29.755Z,685.20
2022-08-23T08:53:28.455Z,686.07
2022-08-23T08:54:28.410Z,686.82
2022-08-23T08:55:28.391Z,687.29
2022-08-23T08:56:32.128Z,687.88
2022-08-23T08:57:28.464Z,688.46
2022-08-23T08:58:28.396Z,688.24
2022-08-23T08:59:28.348Z,688.21
2022-08-23T09:00:28.365Z,688.42
2022-08-23T09:01:28.484Z,687.84
2022-08-23T09:02:32.484Z,687.64
2022-08-23T09:03:28.373Z,686.62
2022-08-23T09:04:28.289Z,686.05
2022-08-23T09:05:28.307Z,685.16
2022-08-23T09:06:28.274Z,684.44
2022-08-23T09:07:31.293Z,683.92
2022-08-23T09:08:28.261Z,683.24
2022-08-23T09:09:28.268Z,682.98
2022-08-23T09:10:28.265Z,682.75
2022-08-23T09:11:28.216Z,681.92
2022-08-23T09:12:28.202Z,680.70
2022-08-23T09:13:28.194Z,680.93
2022-08-23T09:14:28.178Z,681.18
2022-08-23T09:15:28.183Z,681.42
2022-08-23T09:16:28.859Z,681.38
2022-08-23T09:17:28.153Z,682.11
2022-08-23T09:18:28.226Z,681.51
2022-08-23T09:19:28.129Z,680.57
2022-08-23T09:20:32.396Z,679.88
2022-08-23T09:21:28.424Z,680.31
2022-08-23T09:22:28.095Z,680.22
2022-08-23T09:23:28.109Z,680.18
2022-08-23T09:24:28.107Z,680.11
2022-08-23T09:25:28.112Z,679.98
2022-08-23T09:26:28.049Z,679.71
2022-08-23T09:27:28.038Z,679.52
2022-08-23T09:28:28.351Z,680.11
2022-08-23T09:29:28.043Z,680.25
2022-08-23T09:30:28.059Z,680.33
2022-08-23T09:31:28.036Z,680.34
2022-08-23T09:32:27.998Z,679.53
2022-08-23T09:33:27.983Z,679.94
2022-08-23T09:34:27.999Z,680.58
2022-08-23T09:35:27.951Z,680.95
2022-08-23T09:36:27.938Z,681.22
2022-08-23T09:37:27.926Z,680.89
2022-08-23T09:38:27.981Z,680.23
2022-08-23T09:39:30.480Z,679.20
2022-08-23T09:40:28.124Z,678.82
2022-08-23T09:41:27.897Z,678.78
2022-08-23T09:42:27.869Z,678.28
2022-08-23T09:43:27.880Z,678.40
2022-08-23T09:44:27.933Z,677.70
2022-08-23T09:45:29.731Z,677.65
2022-08-23T09:46:27.899Z,677.50
2022-08-23T09:47:27.821Z,677.78
2022-08-23T09:48:31.097Z,677.70
2022-08-23T09:49:27.827Z,677.54
2022-08-23T09:50:27.797Z,677.77
2022-08-23T09:51:27.782Z,678.03
2022-08-23T09:52:27.830Z,678.04
2022-08-23T09:53:27.779Z,678.03
2022-08-23T09:54:27.785Z,677.80
2022-08-23T09:55:27.808Z,677.53
2022-08-23T09:56:27.726Z,677.48
2022-08-23T09:57:27.958Z,676.94
2022-08-23T09:58:27.759Z,677.14
2022-08-23T09:59:27.757Z,676.05
2022-08-23T10:00:27.705Z,676.42
2022-08-23T10:01:27.771Z,676.32
2022-08-23T10:02:27.660Z,676.31
2022-08-23T10:03:27.703Z,676.06
2022-08-23T10:04:27.747Z,676.84
2022-08-23T10:05:27.880Z,676.64
2022-08-23T10:06:27.623Z,676.54
2022-08-23T10:07:27.613Z,675.41
2022-08-23T10:08:27.625Z,676.29
2022-08-23T10:09:27.606Z,676.80
2022-08-23T10:10:27.572Z,676.88
2022-08-23T10:11:27.636Z,677.55
2022-08-23T10:12:27.567Z,677.20
2022-08-23T10:13:27.577Z,677.33
2022-08-23T10:14:28.776Z,677.82
2022-08-23T10:15:27.522Z,677.76
2022-08-23T10:16:27.774Z,678.17
2022-08-23T10:17:27.603Z,677.72
2022-08-23T10:18:27.511Z,677.53
2022-08-23T10:19:27.479Z,676.38
2022-08-23T10:20:27.694Z,675.43
2022-08-23T10:22:36.745Z,674.54
2022-08-23T10:23:37.848Z,674.78
2022-08-23T10:24:37.734Z,674.63
2022-08-23T10:25:37.699Z,674.49
2022-08-23T10:26:37.706Z,674.84
2022-08-23T10:27:37.702Z,674.38
2022-08-23T10:28:39.280Z,673.42
2022-08-23T10:29:37.703Z,672.18
2022-08-23T10:30:37.670Z,671.85
2022-08-23T10:31:37.732Z,671.32
2022-08-23T10:32:37.624Z,671.01
2022-08-23T10:33:37.611Z,671.84
2022-08-23T10:34:37.615Z,671.58
2022-08-23T10:35:37.600Z,671.85
2022-08-23T10:36:37.671Z,671.14
2022-08-23T10:37:37.577Z,670.52
2022-08-23T10:38:37.663Z,670.56
2022-08-23T10:39:37.541Z,670.58
2022-08-23T10:40:37.585Z,670.49
2022-08-23T10:41:37.521Z,670.10
2022-08-23T10:42:37.574Z,669.48
2022-08-23T10:43:37.721Z,669.00
2022-08-23T10:44:37.509Z,669.40
2022-08-23T10:45:37.491Z,669.25
2022-08-23T10:46:37.564Z,668.76
2022-08-23T10:47:37.501Z,668.34
2022-08-23T10:48:37.477Z,668.26
2022-08-23T10:49:37.446Z,669.09
2022-08-23T10:50:37.431Z,669.66
2022-08-23T10:51:37.420Z,668.90
2022-08-23T10:52:37.404Z,668.55
2022-08-23T10:53:37.488Z,668.38
2022-08-23T10:54:37.391Z,668.99
2022-08-23T10:55:37.416Z,669.33
2022-08-23T10:56:40.437Z,670.52
2022-08-23T10:57:37.359Z,669.86
2022-08-23T10:58:37.427Z,669.41
2022-08-23T10:59:37.359Z,669.38
2022-08-23T11:00:37.352Z,668.46
2022-08-23T11:01:37.368Z,667.73
2022-08-23T11:02:37.959Z,666.97
2022-08-23T11:03:37.298Z,666.36
2022-08-23T11:04:37.307Z,666.12
2022-08-23T11:05:37.306Z,666.11
2022-08-23T11:06:37.413Z,665.46
2022-08-23T11:07:38.938Z,665.39
2022-08-23T11:08:37.242Z,665.22
2022-08-23T11:09:37.895Z,665.16
2022-08-23T11:10:37.246Z,665.50
2022-08-23T11:11:37.204Z,665.71
2022-08-23T11:12:37.203Z,665.91
2022-08-23T11:13:37.223Z,666.10
2022-08-23T11:14:37.199Z,666.83
2022-08-23T11:15:37.238Z,668.32
2022-08-23T11:16:37.172Z,671.10
2022-08-23T11:17:37.152Z,671.86
2022-08-23T11:18:37.158Z,673.04
2022-08-23T11:19:37.144Z,672.34
2022-08-23T11:20:37.114Z,671.25
2022-08-23T11:21:37.103Z,670.49
2022-08-23T11:22:37.098Z,670.07
2022-08-23T11:23:37.105Z,670.26
2022-08-23T11:24:37.097Z,670.04
2022-08-23T11:25:37.073Z,669.13
2022-08-23T11:26:37.047Z,667.92
2022-08-23T11:27:37.048Z,666.73
2022-08-23T11:28:37.023Z,666.16
2022-08-23T11:29:37.014Z,666.06
2022-08-23T11:30:37.107Z,665.93
2022-08-23T11:31:37.905Z,665.86
2022-08-23T11:32:36.981Z,666.11
2022-08-23T11:33:36.978Z,666.29
2022-08-23T11:34:36.987Z,665.85
2022-08-23T11:35:37.096Z,666.78
2022-08-23T11:36:36.955Z,668.13
2022-08-23T11:37:36.950Z,668.63
2022-08-23T11:38:36.920Z,669.09
2022-08-23T11:39:36.932Z,669.72
2022-08-23T11:40:36.901Z,670.44
2022-08-23T11:41:36.903Z,671.03
2022-08-23T11:42:39.408Z,670.27
2022-08-23T11:43:37.416Z,669.77
2022-08-23T11:44:36.853Z,668.83
2022-08-23T11:45:36.876Z,667.79
2022-08-23T11:46:36.848Z,666.66
2022-08-23T11:47:36.822Z,666.31
2022-08-23T11:48:36.809Z,666.29
2022-08-23T11:49:36.834Z,666.00
2022-08-23T11:50:36.832Z,665.39
2022-08-23T11:51:36.902Z,665.25
2022-08-23T11:52:36.775Z,664.83
2022-08-23T11:53:36.767Z,664.30
2022-08-23T11:54:36.749Z,663.95
2022-08-23T11:55:36.764Z,663.65
2022-08-23T11:56:36.926Z,663.62
2022-08-23T11:57:36.713Z,663.21
2022-08-23T11:58:36.708Z,663.19
2022-08-23T11:59:41.423Z,663.49
2022-08-23T12:00:36.705Z,663.25
2022-08-23T12:01:36.710Z,663.12
2022-08-23T12:02:36.893Z,663.14
2022-08-23T12:03:36.853Z,662.80
2022-08-23T12:04:36.647Z,662.26
2022-08-23T12:05:37.421Z,662.07
2022-08-23T12:06:39.134Z,661.54
2022-08-23T12:07:36.679Z,661.53
2022-08-23T12:08:36.607Z,660.79
2022-08-23T12:09:36.597Z,660.51
2022-08-23T12:10:36.584Z,660.74
2022-08-23T12:11:36.600Z,660.52
2022-08-23T12:12:40.877Z,660.21
2022-08-23T12:13:36.550Z,660.37
2022-08-23T12:14:36.541Z,660.49
2022-08-23T12:15:36.605Z,660.62
2022-08-23T12:16:36.527Z,660.37
2022-08-23T12:17:36.789Z,660.68
2022-08-23T12:18:36.505Z,660.98
2022-08-23T12:19:40.177Z,662.73
2022-08-23T12:20:36.474Z,663.50
2022-08-23T12:21:36.465Z,664.84
2022-08-23T12:23:47.969Z,663.79
2022-08-23T12:24:47.035Z,663.21
2022-08-23T12:25:46.400Z,662.47
2022-08-23T12:26:46.380Z,662.94
2022-08-23T12:27:46.380Z,662.26
2022-08-23T12:28:46.428Z,662.27
2022-08-23T12:29:46.349Z,661.85
2022-08-23T12:30:46.410Z,661.65
2022-08-23T12:31:46.383Z,662.04
2022-08-23T12:32:46.311Z,662.40
2022-08-23T12:33:46.356Z,663.80
2022-08-23T12:34:47.259Z,664.15
2022-08-23T12:35:46.281Z,663.65
2022-08-23T12:36:46.274Z,662.96
2022-08-23T12:37:46.271Z,661.96
2022-08-23T12:38:46.282Z,661.05
2022-08-23T12:39:46.345Z,661.33
2022-08-23T12:40:46.257Z,660.87
2022-08-23T12:41:46.228Z,660.31
2022-08-23T12:42:46.217Z,660.14
2022-08-23T12:43:46.303Z,660.13
2022-08-23T12:44:46.197Z,660.37
2022-08-23T12:45:46.179Z,660.24
2022-08-23T12:46:46.283Z,659.97
2022-08-23T12:47:46.161Z,661.36
2022-08-23T12:48:46.185Z,662.23
2022-08-23T12:49:46.146Z,661.89
2022-08-23T12:50:46.124Z,662.05
2022-08-23T12:51:46.118Z,663.05
2022-08-23T12:52:46.108Z,663.31
2022-08-23T12:53:46.132Z,663.05
2022-08-23T12:54:46.094Z,662.73
2022-08-23T12:55:46.084Z,662.47
2022-08-23T12:56:46.066Z,661.40
2022-08-23T12:57:46.050Z,661.29
2022-08-23T12:58:46.084Z,661.19
2022-08-23T12:59:46.045Z,661.15
2022-08-23T13:00:46.027Z,661.11
2022-08-23T13:01:46.070Z,660.84
2022-08-23T13:02:46.048Z,660.62